createdAt,value
2019-02-07T00:03:06.131Z,24.98
2019-02-07T00:08:10.963Z,26.85
2019-02-07T00:13:12.753Z,24.85
2019-02-07T00:18:15.161Z,26.82
2019-02-07T00:23:16.487Z,24.37
2019-02-07T00:28:19.192Z,23.87
2019-02-07T00:33:20.504Z,25.10
2019-02-07T00:38:21.873Z,21.85
2019-02-07T00:43:23.269Z,23.67
2019-02-07T00:48:25.174Z,23.10
2019-02-07T00:53:26.471Z,21.90
2019-02-07T00:58:27.945Z,22.65
2019-02-07T01:03:29.360Z,21.42
2019-02-07T01:08:30.667Z,20.45
2019-02-07T01:13:32.079Z,20.90
2019-02-07T01:18:34.123Z,21.10
2019-02-07T01:23:35.459Z,19.42
2019-02-07T01:28:38.729Z,19.98
2019-02-07T01:33:40.031Z,19.60
2019-02-07T01:38:41.504Z,18.95
2019-02-07T01:43:43.091Z,19.23
2019-02-07T01:48:44.399Z,18.77
2019-02-07T01:53:45.738Z,21.00
2019-02-07T01:58:47.439Z,20.05
2019-02-07T02:03:48.824Z,19.35
2019-02-07T02:08:50.926Z,18.82
2019-02-07T02:13:52.283Z,17.57
2019-02-07T02:18:53.625Z,18.75
2019-02-07T02:23:55.369Z,17.40
2019-02-07T02:28:56.664Z,16.50
2019-02-07T02:33:59.030Z,17.70
2019-02-07T02:39:03.168Z,17.25
2019-02-07T02:44:04.935Z,16.67
2019-02-07T02:49:06.328Z,15.60
2019-02-07T02:54:09.549Z,16.62
2019-02-07T02:59:11.195Z,16.48
2019-02-07T03:04:18.226Z,16.32
2019-02-07T03:09:24.946Z,16.70
2019-02-07T03:14:36.792Z,16.73
2019-02-07T03:19:57.094Z,16.60
2019-02-07T03:25:06.712Z,15.85
2019-02-07T03:30:29.550Z,16.75
2019-02-07T03:35:41.490Z,15.98
2019-02-07T03:41:02.974Z,14.25
2019-02-07T03:46:21.213Z,13.38
2019-02-07T03:51:27.543Z,14.65
2019-02-07T03:56:33.454Z,13.32
2019-02-07T04:02:03.624Z,12.18
2019-02-07T04:07:23.475Z,12.90
2019-02-07T04:12:35.741Z,13.20
2019-02-07T04:17:39.784Z,12.30
2019-02-07T04:22:49.019Z,13.68
2019-02-07T04:27:57.917Z,12.95
2019-02-07T04:33:05.750Z,11.15
2019-02-07T04:38:17.778Z,12.45
2019-02-07T04:43:27.372Z,12.35
2019-02-07T04:48:33.350Z,12.53
2019-02-07T04:53:36.594Z,12.60
2019-02-07T04:58:56.327Z,11.75
2019-02-07T05:04:02.338Z,11.38
2019-02-07T05:09:25.017Z,11.08
2019-02-07T05:14:34.255Z,11.57
2019-02-07T05:19:43.556Z,9.00
2019-02-07T05:24:46.925Z,10.23
2019-02-07T05:29:53.066Z,10.63
2019-02-07T05:35:08.510Z,9.90
2019-02-07T05:40:17.711Z,11.12
2019-02-07T05:45:29.811Z,10.98
2019-02-07T05:50:42.132Z,9.73
2019-02-07T05:55:45.389Z,10.63
2019-02-07T06:01:04.965Z,10.43
2019-02-07T06:06:08.185Z,11.78
2019-02-07T06:11:14.128Z,13.75
2019-02-07T06:16:26.310Z,12.82
2019-02-07T06:21:34.207Z,16.05
2019-02-07T06:26:37.430Z,15.65
2019-02-07T06:31:40.669Z,15.20
2019-02-07T06:37:00.890Z,13.50
2019-02-07T06:42:04.163Z,6.83
2019-02-07T06:47:13.454Z,5.28
2019-02-07T06:52:14.716Z,3.70
2019-02-07T06:57:20.827Z,3.72
2019-02-07T07:02:24.038Z,4.10
2019-02-07T07:07:27.290Z,4.53
2019-02-07T07:12:33.197Z,4.28
2019-02-07T07:17:39.395Z,6.58
2019-02-07T07:22:42.624Z,4.10
2019-02-07T07:27:45.838Z,4.78
2019-02-07T07:32:51.966Z,4.15
2019-02-07T07:38:13.298Z,5.80
2019-02-07T07:43:34.485Z,4.45
2019-02-07T07:48:42.238Z,5.67
2019-02-07T07:53:53.023Z,4.78
2019-02-07T07:59:31.785Z,5.00
2019-02-07T08:04:44.015Z,5.12
2019-02-07T08:09:50.112Z,3.98
2019-02-07T08:14:53.550Z,4.22
2019-02-07T08:20:00.203Z,5.03
2019-02-07T08:25:12.953Z,4.78
2019-02-07T08:30:16.720Z,3.95
2019-02-07T08:35:31.935Z,4.30
2019-02-07T08:40:38.550Z,5.28
2019-02-07T08:45:44.911Z,5.33
2019-02-07T08:50:48.281Z,5.65
2019-02-07T08:56:07.921Z,4.50
2019-02-07T09:01:24.092Z,4.45
2019-02-07T09:06:43.784Z,4.83
2019-02-07T09:11:47.103Z,5.00
2019-02-07T09:16:59.503Z,4.70
2019-02-07T09:22:05.539Z,5.70
2019-02-07T09:27:25.462Z,5.25
2019-02-07T09:32:47.357Z,5.37
2019-02-07T09:37:57.289Z,3.85
2019-02-07T09:43:16.737Z,4.33
2019-02-07T09:48:33.514Z,4.17
2019-02-07T09:53:39.353Z,4.03
2019-02-07T09:58:42.592Z,4.75
2019-02-07T10:03:48.708Z,3.47
2019-02-07T10:08:58.196Z,4.12
2019-02-07T10:14:19.579Z,3.90
2019-02-07T10:19:40.746Z,4.67
2019-02-07T10:25:00.689Z,3.62
2019-02-07T10:30:15.584Z,5.20
2019-02-07T10:35:22.782Z,5.08
2019-02-07T10:40:42.551Z,5.35
2019-02-07T10:45:45.846Z,5.30
2019-02-07T10:50:58.522Z,4.97
2019-02-07T10:56:19.521Z,5.20
2019-02-07T11:01:34.588Z,3.92
2019-02-07T11:06:43.581Z,4.33
2019-02-07T11:11:58.814Z,4.28
2019-02-07T11:17:11.218Z,3.83
2019-02-07T11:22:17.197Z,4.37
2019-02-07T11:27:20.552Z,3.47
2019-02-07T11:32:26.508Z,3.22
2019-02-07T11:37:35.410Z,3.45
2019-02-07T11:42:47.832Z,3.00
2019-02-07T11:48:08.834Z,2.55
2019-02-07T11:53:18.048Z,2.58
2019-02-07T11:58:24.188Z,2.77
2019-02-07T12:03:33.454Z,2.72
2019-02-07T12:08:48.630Z,2.25
2019-02-07T12:13:52.019Z,2.77
2019-02-07T12:19:01.133Z,2.67
2019-02-07T12:24:07.662Z,2.42
2019-02-07T12:29:16.595Z,2.98
2019-02-07T12:34:25.762Z,2.40
2019-02-07T12:39:29.176Z,3.15
2019-02-07T12:44:41.261Z,3.62
2019-02-07T12:49:45.626Z,2.72
2019-02-07T12:54:48.989Z,2.72
2019-02-07T12:59:55.355Z,1.98
2019-02-07T13:05:15.355Z,2.25
2019-02-07T13:10:30.471Z,2.22
2019-02-07T13:15:50.408Z,2.10
2019-02-07T13:21:11.650Z,1.90
2019-02-07T13:26:24.718Z,2.12
2019-02-07T13:31:32.611Z,2.60
2019-02-07T13:36:36.037Z,3.17
2019-02-07T13:41:59.139Z,2.35
2019-02-07T13:47:02.403Z,2.10
2019-02-07T13:52:09.728Z,2.55
2019-02-07T13:57:12.929Z,2.30
2019-02-07T14:02:36.300Z,2.35
2019-02-07T14:07:56.038Z,1.57
2019-02-07T14:13:01.946Z,1.80
2019-02-07T14:18:17.293Z,1.20
2019-02-07T14:23:32.475Z,1.95
2019-02-07T14:28:38.412Z,1.70
2019-02-07T14:33:41.823Z,1.30
2019-02-07T14:38:57.228Z,1.30
2019-02-07T14:44:00.452Z,1.80
2019-02-07T14:49:20.422Z,1.62
2019-02-07T14:54:21.808Z,1.60
2019-02-07T14:59:27.267Z,1.10
2019-02-07T15:04:28.732Z,1.72
2019-02-07T15:09:30.504Z,1.98
2019-02-07T15:14:32.570Z,1.75
2019-02-07T15:19:33.902Z,2.10
2019-02-07T15:24:35.303Z,2.27
2019-02-07T15:29:38.833Z,2.00
2019-02-07T15:34:40.301Z,2.12
2019-02-07T15:39:41.614Z,2.22
2019-02-07T15:44:43.077Z,2.50
2019-02-07T15:49:44.599Z,2.33
2019-02-07T15:54:47.933Z,2.95
2019-02-07T15:59:49.917Z,2.00
2019-02-07T16:04:52.230Z,2.45
2019-02-07T16:09:54.744Z,2.35
2019-02-07T16:14:56.867Z,2.40
2019-02-07T16:19:58.311Z,2.30
2019-02-07T16:24:59.611Z,2.25
2019-02-07T16:30:01.025Z,2.00
2019-02-07T16:35:03.990Z,2.35
2019-02-07T16:40:10.195Z,2.27
2019-02-07T16:45:16.421Z,2.47
2019-02-07T16:50:40.826Z,2.47
2019-02-07T16:55:42.131Z,2.22
2019-02-07T17:00:43.596Z,1.85
2019-02-07T17:05:44.913Z,2.12
2019-02-07T17:10:46.389Z,3.35
2019-02-07T17:15:47.806Z,2.52
2019-02-07T17:20:49.223Z,3.98
2019-02-07T17:25:50.608Z,2.33
2019-02-07T17:30:51.962Z,2.62
2019-02-07T17:35:53.468Z,2.25
2019-02-07T17:40:55.094Z,2.67
2019-02-07T17:45:56.635Z,2.40
2019-02-07T17:50:58.072Z,2.33
2019-02-07T17:55:59.576Z,2.42
2019-02-07T18:01:06.046Z,2.60
2019-02-07T18:06:08.305Z,2.50
2019-02-07T18:11:09.767Z,3.10
2019-02-07T18:16:11.180Z,2.87
2019-02-07T18:21:12.767Z,2.08
2019-02-07T18:26:14.329Z,2.67
2019-02-07T18:31:15.677Z,2.70
2019-02-07T18:36:17.013Z,2.92
2019-02-07T18:41:18.526Z,2.70
2019-02-07T18:46:19.860Z,3.12
2019-02-07T18:51:21.633Z,3.15
2019-02-07T18:56:25.630Z,3.00
2019-02-07T19:01:27.761Z,3.92
2019-02-07T19:06:29.162Z,3.12
2019-02-07T19:11:31.251Z,8.75
2019-02-07T19:16:33.275Z,6.22
2019-02-07T19:21:34.626Z,4.28
2019-02-07T19:26:36.026Z,7.28
2019-02-07T19:31:38.091Z,4.55
2019-02-07T19:36:39.615Z,3.27
2019-02-07T19:41:40.915Z,3.30
2019-02-07T19:46:43.818Z,4.08
2019-02-07T19:51:45.151Z,3.25
2019-02-07T19:56:46.608Z,3.65
2019-02-07T20:01:47.984Z,4.22
2019-02-07T20:06:49.277Z,4.53
2019-02-07T20:11:50.672Z,7.10
2019-02-07T20:16:52.102Z,3.67
2019-02-07T20:21:53.438Z,4.12
2019-02-07T20:26:57.396Z,4.25
2019-02-07T20:31:58.792Z,4.20
2019-02-07T20:37:01.023Z,4.05
2019-02-07T20:42:02.521Z,4.08
2019-02-07T20:47:03.857Z,3.35
2019-02-07T20:52:05.269Z,4.03
2019-02-07T20:57:06.866Z,3.62
2019-02-07T21:02:08.162Z,3.98
2019-02-07T21:07:12.739Z,3.72
2019-02-07T21:12:14.516Z,4.67
2019-02-07T21:17:16.056Z,4.55
2019-02-07T21:22:17.376Z,4.28
2019-02-07T21:27:18.842Z,4.08
2019-02-07T21:32:20.210Z,5.05
2019-02-07T21:37:21.638Z,3.95
2019-02-07T21:42:23.221Z,4.85
2019-02-07T21:47:24.700Z,4.65
2019-02-07T21:52:26.207Z,6.15
2019-02-07T21:57:27.651Z,5.08
2019-02-07T22:02:28.946Z,5.03
2019-02-07T22:07:30.261Z,5.28
2019-02-07T22:12:31.641Z,3.85
2019-02-07T22:17:33.344Z,4.85
2019-02-07T22:22:34.662Z,3.65
2019-02-07T22:27:36.017Z,26.35
2019-02-07T22:32:37.474Z,5.72
2019-02-07T22:37:39.392Z,5.65
2019-02-07T22:42:47.536Z,3.00
2019-02-07T22:47:44.360Z,3.22
2019-02-07T22:52:46.586Z,3.72
2019-02-07T22:57:48.069Z,3.60
2019-02-07T23:02:49.376Z,2.25
2019-02-07T23:07:50.727Z,2.62
2019-02-07T23:12:52.086Z,2.37
2019-02-07T23:17:53.914Z,2.83
2019-02-07T23:22:55.377Z,2.65
2019-02-07T23:27:56.680Z,2.33
2019-02-07T23:32:58.481Z,2.47
2019-02-07T23:38:00.133Z,2.83
2019-02-07T23:43:01.858Z,2.58
2019-02-07T23:48:03.308Z,2.12
2019-02-07T23:53:14.111Z,2.83
2019-02-07T23:58:08.141Z,2.90
